Time;durP1;ratioP1;P1;durP2;ratioP2;P2;SDS_P1;SDS_P2;PMS_P1;PMS_P2;Temp;Humidity;BMP_temperature;BMP_pressure;BME280_temperature;BME280_humidity;BME280_pressure;Samples;Min_cycle;Max_cycle;Signal;HPM_P1;HPM_P2
2023/12/01 00:00:29;;;;;;;9.40;3.83;;;;;;;-0.25;100.00;100222.69;5046703;28;20076;-68
2023/12/01 00:02:55;;;;;;;8.20;3.38;;;;;;;-0.31;100.00;100227.84;5047134;28;20053;-68
2023/12/01 00:05:22;;;;;;;6.68;3.13;;;;;;;-0.19;100.00;100242.41;5045348;28;20140;-69
2023/12/01 00:07:49;;;;;;;8.65;2.97;;;;;;;-0.14;100.00;100232.09;5048905;28;20056;-68
2023/12/01 00:10:15;;;;;;;9.00;3.47;;;;;;;-0.14;100.00;100232.97;5048548;28;20037;-68
2023/12/01 00:12:42;;;;;;;7.80;3.20;;;;;;;-0.16;100.00;100224.41;5049151;28;20553;-68
2023/12/01 00:15:09;;;;;;;7.50;2.83;;;;;;;-0.23;100.00;100220.97;5037639;28;20132;-68
2023/12/01 00:17:36;;;;;;;8.90;3.63;;;;;;;-0.56;100.00;100224.44;5057185;28;20056;-68
2023/12/01 00:20:03;;;;;;;7.78;2.90;;;;;;;-0.47;100.00;100237.28;5050182;28;20052;-68
2023/12/01 00:22:29;;;;;;;9.75;3.35;;;;;;;-0.36;100.00;100228.69;5036096;28;20076;-68
2023/12/01 00:24:56;;;;;;;8.73;3.17;;;;;;;-0.33;100.00;100233.84;5039636;28;20058;-68
2023/12/01 00:27:23;;;;;;;9.20;3.78;;;;;;;-0.33;100.00;100231.28;5033453;28;20053;-68
2023/12/01 00:29:49;;;;;;;7.88;3.20;;;;;;;-0.40;100.00;100231.28;5028700;28;20479;-68
2023/12/01 00:32:16;;;;;;;8.77;3.97;;;;;;;-0.39;100.00;100239.84;5056330;28;20136;-68
2023/12/01 00:34:43;;;;;;;13.85;5.22;;;;;;;-0.50;100.00;100241.56;5034767;28;20056;-68
2023/12/01 00:37:10;;;;;;;9.63;4.05;;;;;;;-0.47;100.00;100249.28;5035200;28;20052;-68
2023/12/01 00:39:36;;;;;;;11.60;4.38;;;;;;;-0.55;100.00;100243.28;5032554;28;20053;-68
2023/12/01 00:42:03;;;;;;;8.52;3.30;;;;;;;-0.59;100.00;100239.84;5043928;28;20064;-68
2023/12/01 00:44:30;;;;;;;8.80;3.60;;;;;;;-0.49;100.00;100251.00;5052108;28;20053;-68
2023/12/01 00:46:57;;;;;;;11.50;4.85;;;;;;;-0.50;100.00;100239.00;5060482;28;20055;-68
2023/12/01 00:49:23;;;;;;;12.38;5.20;;;;;;;-0.55;100.00;100249.28;5059314;28;20049;-68
2023/12/01 00:51:50;;;;;;;9.10;3.95;;;;;;;-0.39;100.00;100261.28;5048107;28;20442;-68
2023/12/01 00:54:17;;;;;;;9.50;3.60;;;;;;;-0.45;100.00;100234.72;5037074;28;20742;-68
2023/12/01 00:56:43;;;;;;;8.85;3.80;;;;;;;-0.28;100.00;100255.28;5049464;28;20053;-68
2023/12/01 00:59:12;;;;;;;7.07;3.00;;;;;;;-0.28;100.00;100248.41;5047244;28;20045;-68
2023/12/01 01:01:39;;;;;;;10.98;4.75;;;;;;;-0.46;100.00;100257.00;5039047;28;20053;-68
2023/12/01 01:04:06;;;;;;;18.05;4.10;;;;;;;-0.36;100.00;100268.13;5048453;28;20045;-68
2023/12/01 01:06:35;;;;;;;8.85;3.42;;;;;;;-0.20;100.00;100256.97;5054592;28;20055;-67
2023/12/01 01:09:03;;;;;;;8.00;3.13;;;;;;;-0.23;100.00;100254.41;5066885;28;20056;-68
2023/12/01 01:11:30;;;;;;;7.80;3.25;;;;;;;-0.27;100.00;100262.13;5051255;28;20040;-68
2023/12/01 01:13:56;;;;;;;7.68;3.58;;;;;;;-0.23;100.00;100263.84;5050122;28;20053;-68
2023/12/01 01:16:23;;;;;;;6.93;2.88;;;;;;;0.09;100.00;100255.19;5038401;28;20072;-68
2023/12/01 01:18:50;;;;;;;8.38;3.13;;;;;;;0.29;100.00;100263.75;5039786;28;20076;-68
2023/12/01 01:21:17;;;;;;;7.40;3.08;;;;;;;0.33;100.00;100256.84;5060476;28;20071;-68
2023/12/01 01:23:44;;;;;;;6.35;2.40;;;;;;;0.44;100.00;100256.81;5043365;28;20052;-68
2023/12/01 01:26:12;;;;;;;6.72;2.58;;;;;;;0.47;100.00;100249.09;5071347;28;20049;-68
2023/12/01 01:28:40;;;;;;;6.88;2.45;;;;;;;0.58;100.00;100252.47;5047473;28;20483;-67
2023/12/01 01:31:07;;;;;;;9.50;3.92;;;;;;;0.55;100.00;100255.06;5030394;28;20053;-68
2023/12/01 01:33:34;;;;;;;6.53;2.90;;;;;;;0.44;100.00;100262.81;5053819;28;20384;-68
2023/12/01 01:36:01;;;;;;;9.23;2.80;;;;;;;0.30;100.00;100264.59;5039014;28;20106;-68
2023/12/01 01:38:29;;;;;;;9.57;3.78;;;;;;;-0.23;100.00;100259.56;5030713;28;20072;-68
2023/12/01 01:40:56;;;;;;;9.13;4.20;;;;;;;-0.25;100.00;100253.56;5040465;28;20083;-68
2023/12/01 01:43:24;;;;;;;8.25;3.33;;;;;;;-0.24;100.00;100252.69;5055125;28;20049;-68
2023/12/01 01:46:02;;;;;;;10.93;4.30;;;;;;;-0.30;100.00;100255.28;5047290;28;20044;-68
2023/12/01 01:48:30;;;;;;;9.48;3.92;;;;;;;-0.35;100.00;100249.28;5069640;28;20059;-68
2023/12/01 01:50:58;;;;;;;9.43;3.55;;;;;;;-0.29;100.00;100253.56;5046545;28;20064;-67
2023/12/01 01:53:24;;;;;;;7.40;3.08;;;;;;;-0.21;100.00;100244.97;5049125;28;20408;-68
2023/12/01 01:55:51;;;;;;;7.90;2.97;;;;;;;-0.26;100.00;100227.84;5044101;28;20490;-68
2023/12/01 01:58:19;;;;;;;10.02;4.10;;;;;;;-0.27;100.00;100237.25;5036019;28;20463;-68
2023/12/01 02:00:49;;;;;;;10.73;3.60;;;;;;;-0.24;100.00;100254.41;5036712;28;20058;-68
2023/12/01 02:03:18;;;;;;;10.30;3.47;;;;;;;-0.21;100.00;100255.28;5058574;28;20041;-68
2023/12/01 02:05:49;;;;;;;9.50;3.88;;;;;;;-0.25;100.00;100247.53;5048860;28;20045;-67
2023/12/01 02:08:34;;;;;;;8.50;3.65;;;;;;;-0.13;100.00;100259.53;5057794;28;20692;-68
2023/12/01 02:11:01;;;;;;;8.52;3.50;;;;;;;-0.08;100.00;100262.97;5069943;28;20548;-68
2023/12/01 02:13:28;;;;;;;8.57;3.03;;;;;;;-0.05;100.00;100257.81;5047690;28;20131;-68
2023/12/01 02:15:55;;;;;;;6.68;2.97;;;;;;;0.01;100.00;100252.66;5029638;28;20082;-69
2023/12/01 02:18:21;;;;;;;7.68;3.22;;;;;;;0.11;100.00;100258.66;5030810;28;20475;-69
2023/12/01 02:20:50;;;;;;;6.82;2.97;;;;;;;0.10;100.00;100254.34;5040370;28;20045;-68
2023/12/01 02:23:17;;;;;;;5.65;2.65;;;;;;;0.17;100.00;100256.03;5036452;28;20053;-67
2023/12/01 02:25:44;;;;;;;5.63;2.47;;;;;;;0.14;100.00;100253.47;5059326;28;20059;-67
2023/12/01 02:28:11;;;;;;;6.32;2.85;;;;;;;0.11;100.00;100251.78;5045531;28;20049;-67
2023/12/01 02:30:38;;;;;;;6.10;2.45;;;;;;;0.06;100.00;100244.94;5045024;28;20041;-68
2023/12/01 02:33:05;;;;;;;8.18;3.53;;;;;;;-0.03;100.00;100261.25;5049742;28;20370;-68
2023/12/01 02:35:32;;;;;;;6.55;2.72;;;;;;;-0.04;100.00;100254.38;5049521;28;20518;-67
2023/12/01 02:37:59;;;;;;;6.07;2.55;;;;;;;0.14;100.00;100259.50;5048338;28;20471;-67
2023/12/01 02:40:27;;;;;;;6.45;2.40;;;;;;;0.16;100.00;100254.31;5048935;28;20490;-68
2023/12/01 02:42:54;;;;;;;6.50;2.65;;;;;;;0.13;100.00;100249.19;5050447;28;20044;-68
2023/12/01 02:45:22;;;;;;;5.70;2.35;;;;;;;0.23;100.00;100256.03;5048959;28;20080;-68
2023/12/01 02:47:49;;;;;;;6.00;2.47;;;;;;;0.16;100.00;100259.47;5048061;28;20125;-68
2023/12/01 02:50:17;;;;;;;6.18;2.53;;;;;;;0.15;100.00;100266.34;5048757;28;20531;-68
2023/12/01 02:52:44;;;;;;;7.05;2.70;;;;;;;0.07;100.00;100256.94;5052034;28;20041;-68
2023/12/01 02:55:11;;;;;;;7.60;3.10;;;;;;;0.06;100.00;100268.09;5044998;28;20053;-68
2023/12/01 02:57:41;;;;;;;6.20;2.67;;;;;;;-0.04;100.00;100262.09;5049285;28;20041;-68
2023/12/01 03:00:13;;;;;;;8.07;3.20;;;;;;;0.00;100.00;100268.97;5047942;28;20045;-68
2023/12/01 03:02:41;;;;;;;6.43;2.95;;;;;;;-0.10;100.00;100262.97;5050266;28;20053;-68
2023/12/01 03:05:09;;;;;;;6.60;2.90;;;;;;;-0.09;100.00;100275.00;5041022;28;20433;-68
2023/12/01 03:07:37;;;;;;;7.63;2.80;;;;;;;-0.05;100.00;100268.13;5049176;28;20410;-68
2023/12/01 03:10:07;;;;;;;6.90;2.92;;;;;;;0.03;100.00;100257.81;5051008;28;20045;-68
2023/12/01 03:12:35;;;;;;;7.18;3.35;;;;;;;0.05;100.00;100272.38;5058711;28;20056;-68
2023/12/01 03:15:04;;;;;;;7.63;3.40;;;;;;;0.07;100.00;100267.22;5061157;28;20052;-68
2023/12/01 03:17:37;;;;;;;11.88;5.30;;;;;;;-0.39;100.00;100227.84;5038085;28;20084;-68
2023/12/01 03:20:09;;;;;;;8.90;3.78;;;;;;;-0.23;100.00;100269.84;5045436;28;20057;-68
2023/12/01 03:22:38;;;;;;;8.50;3.83;;;;;;;-0.17;100.00;100257.84;5029561;28;20046;-68
2023/12/01 03:25:12;;;;;;;8.45;3.20;;;;;;;-0.14;100.00;100253.56;5042814;28;20471;-68
2023/12/01 03:27:45;;;;;;;9.18;3.20;;;;;;;-0.02;100.00;100257.81;5052294;28;20056;-68
2023/12/01 03:30:16;;;;;;;6.93;2.67;;;;;;;0.08;100.00;100258.66;5045399;28;20076;-68
2023/12/01 03:32:48;;;;;;;7.35;3.20;;;;;;;0.06;100.00;100238.06;5031896;28;20140;-68
2023/12/01 03:35:21;;;;;;;6.73;2.80;;;;;;;0.14;100.00;100254.34;5052441;28;20052;-68
2023/12/01 03:37:48;;;;;;;;;;;;;;;0.20;100.00;100258.63;5043593;28;20052;-68
2023/12/01 03:40:16;;;;;;;9.27;3.78;;;;;;;0.01;100.00;100265.53;5038333;28;20374;-68
2023/12/01 03:42:46;;;;;;;8.18;2.97;;;;;;;0.04;100.00;100254.38;5063910;28;20474;-68
2023/12/01 03:45:14;;;;;;;6.90;2.42;;;;;;;-0.08;100.00;100237.22;5058541;28;20052;-68
2023/12/01 03:47:42;;;;;;;6.43;2.40;;;;;;;0.03;100.00;100237.22;5040786;28;20305;-68
2023/12/01 03:50:12;;;;;;;7.47;2.95;;;;;;;0.15;100.00;100244.91;5053347;28;20080;-68
2023/12/01 03:52:44;;;;;;;5.80;2.40;;;;;;;0.07;100.00;100242.34;5054190;28;20049;-68
2023/12/01 03:55:12;;;;;;;5.65;2.28;;;;;;;0.17;100.00;100258.63;5056196;28;20283;-68
2023/12/01 03:57:41;;;;;;;7.97;2.85;;;;;;;0.14;100.00;100244.06;5035987;28;20636;-68
2023/12/01 04:00:13;;;;;;;5.50;2.20;;;;;;;0.18;100.00;100253.47;5034322;28;20399;-68
2023/12/01 04:02:42;;;;;;;6.53;2.72;;;;;;;0.07;100.00;100247.50;5059606;28;20080;-68
2023/12/01 04:05:17;;;;;;;6.75;2.70;;;;;;;0.11;100.00;100245.78;5040163;28;20419;-68
2023/12/01 04:07:50;;;;;;;5.85;2.00;;;;;;;0.17;100.00;100258.63;5032364;28;20060;-68
2023/12/01 04:10:19;;;;;;;6.72;2.30;;;;;;;0.22;100.00;100253.47;5060957;28;20118;-68
2023/12/01 04:12:46;;;;;;;6.25;2.15;;;;;;;0.13;100.00;100241.47;5047955;28;20051;-68
2023/12/01 04:15:20;;;;;;;7.35;2.75;;;;;;;0.09;100.00;100245.78;5046854;28;20063;-68
2023/12/01 04:17:48;;;;;;;6.20;2.53;;;;;;;-0.01;100.00;100229.50;5050699;28;20048;-68
2023/12/01 04:20:25;;;;;;;7.03;2.83;;;;;;;0.07;100.00;100250.09;5042567;28;20045;-68
2023/12/01 04:22:55;;;;;;;5.13;2.00;;;;;;;-0.01;100.00;100237.22;5054697;28;20041;-68
2023/12/01 04:25:22;;;;;;;6.20;2.33;;;;;;;-0.15;100.00;100220.94;5030446;28;20451;-68
2023/12/01 04:27:51;;;;;;;6.70;2.22;;;;;;;0.04;100.00;100241.50;5063480;28;20075;-68
2023/12/01 04:30:18;;;;;;;5.43;2.17;;;;;;;0.12;100.00;100253.47;5046071;28;20052;-68
2023/12/01 04:32:47;;;;;;;7.47;2.40;;;;;;;0.11;100.00;100259.50;5067593;28;20513;-68
2023/12/01 04:35:15;;;;;;;6.03;2.10;;;;;;;0.08;100.00;100264.66;5034872;28;20076;-68
2023/12/01 04:37:42;;;;;;;5.07;2.17;;;;;;;0.06;100.00;100258.66;5062328;28;20053;-68
2023/12/01 04:40:16;;;;;;;7.88;2.55;;;;;;;0.09;100.00;100261.22;5064401;28;20496;-68
2023/12/01 04:42:47;;;;;;;7.03;2.55;;;;;;;0.14;100.00;100269.81;5070189;28;20063;-68
2023/12/01 04:45:16;;;;;;;6.38;2.50;;;;;;;0.10;100.00;100270.66;5057296;28;20497;-68
2023/12/01 04:47:44;;;;;;;5.32;2.15;;;;;;;0.07;100.00;100255.22;5056982;28;20310;-68
2023/12/01 04:50:13;;;;;;;7.07;2.53;;;;;;;0.14;100.00;100261.19;5060516;28;20131;-68
2023/12/01 04:52:53;;;;;;;8.65;3.17;;;;;;;0.17;100.00;100261.19;5067233;28;20060;-68
2023/12/01 04:55:23;;;;;;;5.70;2.25;;;;;;;0.13;100.00;100249.19;5049753;28;20045;-68
2023/12/01 04:57:49;;;;;;;6.00;2.28;;;;;;;0.14;100.00;100254.34;5071761;28;20059;-68
2023/12/01 05:00:21;;;;;;;5.90;2.58;;;;;;;0.08;100.00;100258.66;5057005;28;20045;-68
2023/12/01 05:02:51;;;;;;;6.45;2.45;;;;;;;0.01;100.00;100247.50;5059595;28;20178;-69
2023/12/01 05:05:20;;;;;;;8.25;2.30;;;;;;;0.10;100.00;100255.19;5044022;28;20045;-69
2023/12/01 05:07:51;;;;;;;5.75;2.05;;;;;;;0.10;100.00;100252.63;5071869;28;20052;-69
2023/12/01 05:10:20;;;;;;;5.47;2.35;;;;;;;-0.03;100.00;100245.81;5058891;28;20044;-69
2023/12/01 05:12:50;;;;;;;6.40;2.45;;;;;;;-0.09;100.00;100246.69;5071655;28;20052;-69
2023/12/01 05:15:18;;;;;;;5.38;2.25;;;;;;;0.02;100.00;100244.09;5062956;28;20080;-69
2023/12/01 05:17:50;;;;;;;6.10;2.30;;;;;;;0.00;100.00;100248.38;5051619;28;20056;-69
2023/12/01 05:20:18;;;;;;;5.30;2.00;;;;;;;0.01;100.00;100255.22;5052665;28;20045;-69
2023/12/01 05:22:53;;;;;;;5.72;2.15;;;;;;;0.03;100.00;100250.94;5058993;28;20052;-69
2023/12/01 05:25:21;;;;;;;6.53;2.53;;;;;;;-0.01;100.00;100250.06;5049059;28;20048;-68
2023/12/01 05:27:48;;;;;;;7.28;3.10;;;;;;;-0.26;100.00;100259.56;5046697;28;20057;-68
2023/12/01 05:30:23;;;;;;;6.72;2.67;;;;;;;-0.34;100.00;100255.28;5070843;28;20066;-68
2023/12/01 05:32:51;;;;;;;6.80;2.83;;;;;;;-0.31;100.00;100240.69;5044946;28;20071;-68
2023/12/01 05:35:19;;;;;;;4.85;2.25;;;;;;;-0.24;100.00;100249.28;5053998;28;20052;-69
2023/12/01 05:37:48;;;;;;;6.57;2.67;;;;;;;-0.23;100.00;100244.13;5050665;28;20055;-69
2023/12/01 05:40:29;;;;;;;7.07;2.60;;;;;;;-0.28;100.00;100238.13;5062848;28;20048;-69
2023/12/01 05:42:57;;;;;;;6.45;2.42;;;;;;;-0.28;100.00;100238.13;5069917;28;20050;-69
2023/12/01 05:45:29;;;;;;;7.07;2.78;;;;;;;-0.28;100.00;100247.56;5062437;28;20061;-68
2023/12/01 05:47:56;;;;;;;6.45;2.75;;;;;;;-0.28;100.00;100248.41;5055784;28;20049;-71
2023/12/01 05:50:28;;;;;;;5.55;2.00;;;;;;;-0.34;100.00;100250.97;5066386;28;20200;-69
2023/12/01 05:52:57;;;;;;;5.68;2.35;;;;;;;-0.32;100.00;100259.56;5070092;28;20044;-69
2023/12/01 05:55:28;;;;;;;8.68;2.60;;;;;;;-0.41;100.00;100255.28;5057354;28;20053;-68
2023/12/01 05:58:06;;;;;;;7.40;2.50;;;;;;;-0.32;100.00;100258.69;5066254;28;20044;-68
2023/12/01 06:00:33;;;;;;;5.32;2.33;;;;;;;-0.38;100.00;100254.41;5050482;28;20128;-68
2023/12/01 06:03:08;;;;;;;5.93;2.38;;;;;;;-0.23;100.00;100250.97;5065852;28;20059;-69
2023/12/01 06:05:37;;;;;;;5.53;2.25;;;;;;;-0.31;100.00;100245.00;5051471;28;20056;-68
2023/12/01 06:08:04;;;;;;;7.57;2.42;;;;;;;-0.27;100.00;100252.69;5066925;28;20409;-69
2023/12/01 06:10:35;;;;;;;5.65;2.33;;;;;;;-0.13;100.00;100260.41;5058502;28;20474;-68
2023/12/01 06:13:02;;;;;;;6.60;2.30;;;;;;;-0.17;100.00;100258.69;5054093;28;20055;-68
2023/12/01 06:15:31;;;;;;;5.43;1.90;;;;;;;-0.16;100.00;100252.69;5046121;28;20391;-69
2023/12/01 06:18:00;;;;;;;5.15;2.60;;;;;;;-0.14;100.00;100263.84;5068722;28;20060;-69
2023/12/01 06:20:29;;;;;;;5.60;2.17;;;;;;;-0.23;100.00;100246.69;5052902;28;20452;-69
2023/12/01 06:22:58;;;;;;;6.45;2.20;;;;;;;-0.10;100.00;100267.28;5058359;28;20140;-69
2023/12/01 06:25:29;;;;;;;6.03;2.28;;;;;;;-0.14;100.00;100268.13;5057585;28;20143;-69
2023/12/01 06:27:58;;;;;;;4.18;1.90;;;;;;;-0.25;100.00;100260.41;5058981;28;20056;-68
2023/12/01 06:30:27;;;;;;;5.85;2.30;;;;;;;-0.14;100.00;100274.13;5049987;28;20192;-69
2023/12/01 06:32:55;;;;;;;6.65;2.50;;;;;;;-0.18;100.00;100256.97;5050112;28;20398;-69
2023/12/01 06:35:22;;;;;;;6.38;2.45;;;;;;;-0.24;100.00;100244.13;5042784;28;20060;-69
2023/12/01 06:37:49;;;;;;;5.55;2.38;;;;;;;-0.22;100.00;100250.13;5048763;28;20497;-68
2023/12/01 06:40:18;;;;;;;9.07;2.90;;;;;;;-0.17;100.00;100276.72;5044491;28;20095;-69
2023/12/01 06:42:47;;;;;;;10.10;4.32;;;;;;;-0.38;100.00;100275.84;5038131;28;20052;-69
2023/12/01 06:45:16;;;;;;;7.63;2.80;;;;;;;-0.29;100.00;100261.28;5040225;28;20053;-68
2023/12/01 06:47:47;;;;;;;9.15;3.33;;;;;;;-0.25;100.00;100261.28;5056799;28;20055;-68
2023/12/01 06:50:16;;;;;;;9.05;3.40;;;;;;;-0.27;100.00;100265.56;5048043;28;20045;-67
2023/12/01 06:52:48;;;;;;;8.80;3.20;;;;;;;-0.21;100.00;100263.00;5048571;28;20056;-69
2023/12/01 06:55:15;;;;;;;10.70;3.33;;;;;;;-0.26;100.00;100269.84;5046632;28;20449;-67
2023/12/01 06:57:43;;;;;;;8.90;3.35;;;;;;;-0.28;100.00;100271.56;5064093;28;20475;-68
2023/12/01 07:03:07;;;;;;;6.30;2.72;;;;;;;-0.30;100.00;100262.13;5049833;28;20044;-68
2023/12/01 07:05:37;;;;;;;9.73;3.03;;;;;;;-0.46;100.00;100269.00;5048900;28;20049;-67
2023/12/01 07:08:05;;;;;;;8.02;3.72;;;;;;;-0.47;100.00;100260.44;5049444;28;20076;-68
2023/12/01 07:10:32;;;;;;;6.93;2.80;;;;;;;-0.34;100.00;100273.28;5042537;28;20427;-68
2023/12/01 07:12:59;;;;;;;7.13;2.95;;;;;;;-0.42;100.00;100279.28;5045638;28;20071;-68
2023/12/01 07:15:27;;;;;;;6.25;2.60;;;;;;;-0.46;100.00;100267.28;5042598;28;20080;-69
2023/12/01 07:17:56;;;;;;;7.63;2.70;;;;;;;-0.41;100.00;100272.41;5047012;28;20580;-70
2023/12/01 07:20:23;;;;;;;5.97;2.22;;;;;;;-0.61;100.00;100262.13;5041151;28;20097;-68
2023/12/01 07:22:52;;;;;;;7.00;2.88;;;;;;;-0.63;100.00;100284.44;5041129;28;20140;-69
2023/12/01 07:25:22;;;;;;;7.28;3.05;;;;;;;-0.68;100.00;100281.00;5041782;28;20063;-69
2023/12/01 07:28:01;;;;;;;8.02;3.33;;;;;;;-0.78;100.00;100290.38;5044813;28;20107;-68
2023/12/01 07:30:28;;;;;;;7.72;3.67;;;;;;;-0.73;100.00;100280.13;5048050;28;20131;-68
2023/12/01 07:32:57;;;;;;;7.85;3.17;;;;;;;-0.72;100.00;100289.56;5049200;28;20598;-69
2023/12/01 07:35:24;;;;;;;7.72;2.70;;;;;;;-0.80;100.00;100280.13;5047556;28;20060;-69
2023/12/01 07:37:52;;;;;;;8.27;2.83;;;;;;;-0.77;100.00;100297.25;5049554;28;20052;-69
2023/12/01 07:40:21;;;;;;;6.95;2.72;;;;;;;-0.72;100.00;100298.13;5049759;28;20079;-69
2023/12/01 07:42:51;;;;;;;9.90;3.75;;;;;;;-0.75;100.00;100292.97;5049792;28;20056;-69
2023/12/01 07:45:19;;;;;;;4.80;2.17;;;;;;;-0.75;100.00;100287.84;5044045;28;20118;-68
2023/12/01 07:47:47;;;;;;;6.53;2.67;;;;;;;-0.72;100.00;100305.84;5048253;28;20051;-69
2023/12/01 07:50:15;;;;;;;9.93;3.35;;;;;;;-0.74;100.00;100302.41;5047828;28;20087;-68
2023/12/01 07:52:43;;;;;;;6.30;2.50;;;;;;;-0.77;100.00;100294.69;5046067;28;20080;-68
2023/12/01 07:55:10;;;;;;;7.35;3.28;;;;;;;-0.76;100.00;100301.56;5044797;28;20228;-69
2023/12/01 07:57:38;;;;;;;8.48;3.17;;;;;;;-0.80;100.00;100305.84;5046388;28;20502;-69
2023/12/01 08:00:06;;;;;;;7.90;3.42;;;;;;;-0.73;100.00;100310.97;5044447;28;20053;-69
2023/12/01 08:02:32;;;;;;;8.32;3.42;;;;;;;-0.87;100.00;100300.66;5037340;28;20248;-69
2023/12/01 08:04:59;;;;;;;36.97;33.25;;;;;;;-0.88;100.00;100310.09;5049208;28;20064;-69
2023/12/01 08:07:26;;;;;;;17.42;11.27;;;;;;;-0.64;100.00;100314.44;5051031;28;20052;-69
2023/12/01 08:09:53;;;;;;;12.88;7.75;;;;;;;-0.43;100.00;100315.28;5049338;28;20727;-69
2023/12/01 08:12:24;;;;;;;10.30;6.13;;;;;;;-0.55;100.00;100276.72;5043189;28;20512;-71
2023/12/01 08:14:51;;;;;;;9.38;4.55;;;;;;;-0.16;100.00;100311.88;5042079;28;20077;-71
2023/12/01 08:17:18;;;;;;;9.35;4.78;;;;;;;0.06;100.00;100314.44;5049186;28;20080;-71
2023/12/01 08:19:45;;;;;;;9.75;4.30;;;;;;;0.08;100.00;100318.72;5046080;28;20064;-71
2023/12/01 08:22:11;;;;;;;8.88;4.05;;;;;;;-0.10;100.00;100286.13;5052156;28;20482;-71
2023/12/01 08:24:38;;;;;;;10.40;3.83;;;;;;;0.13;100.00;100326.44;5048214;28;20049;-71
2023/12/01 08:27:07;;;;;;;9.35;3.72;;;;;;;0.08;100.00;100315.28;5045395;28;20313;-71
2023/12/01 08:29:35;;;;;;;9.68;3.70;;;;;;;0.15;100.00;100315.25;5056688;28;20055;-71
2023/12/01 08:32:03;;;;;;;8.85;4.45;;;;;;;0.11;100.00;100294.69;5049629;28;20059;-68
2023/12/01 08:34:30;;;;;;;7.85;3.45;;;;;;;0.33;100.00;100329.81;5047113;28;20111;-68
2023/12/01 08:36:57;;;;;;;7.63;3.53;;;;;;;0.38;100.00;100345.28;5045372;28;20061;-68
2023/12/01 08:39:24;;;;;;;8.07;3.05;;;;;;;0.44;100.00;100334.09;5051892;28;20052;-69
2023/12/01 08:41:55;;;;;;;8.07;3.50;;;;;;;0.57;100.00;100346.09;5044940;28;20053;-69
2023/12/01 08:44:22;;;;;;;9.45;3.97;;;;;;;0.81;100.00;100339.97;5040701;28;20410;-69
2023/12/01 08:46:48;;;;;;;9.20;3.42;;;;;;;0.55;100.00;100350.41;5049204;28;20487;-69
2023/12/01 08:49:15;;;;;;;9.63;3.80;;;;;;;0.70;100.00;100342.59;5050683;28;20052;-69
2023/12/01 08:51:42;;;;;;;8.50;3.40;;;;;;;0.68;100.00;100356.38;5051297;28;20041;-69
2023/12/01 08:54:08;;;;;;;9.63;3.50;;;;;;;0.69;100.00;100351.22;5051276;28;20079;-69
2023/12/01 08:56:37;;;;;;;10.13;3.90;;;;;;;0.66;100.00;100355.50;5047510;28;20132;-69
2023/12/01 08:59:04;;;;;;;8.88;3.80;;;;;;;0.79;100.00;100359.75;5050988;28;20045;-68
2023/12/01 09:01:31;;;;;;;7.45;3.00;;;;;;;0.58;100.00;100350.38;5052278;28;20045;-69
2023/12/01 09:03:57;;;;;;;9.60;3.35;;;;;;;0.84;100.00;100358.00;5049381;28;20530;-69
2023/12/01 09:06:24;;;;;;;9.07;3.30;;;;;;;0.91;100.00;100369.16;5047298;28;20053;-69
2023/12/01 09:08:51;;;;;;;6.82;2.90;;;;;;;0.70;100.00;100321.13;5041284;28;20057;-69
2023/12/01 09:11:18;;;;;;;7.90;3.03;;;;;;;0.97;100.00;100361.38;5051968;28;20045;-69
2023/12/01 09:13:45;;;;;;;7.95;2.83;;;;;;;1.04;100.00;100363.06;5045038;28;20422;-69
2023/12/01 09:16:11;;;;;;;7.00;2.65;;;;;;;1.08;100.00;100361.34;5044723;28;20131;-69
2023/12/01 09:18:38;;;;;;;8.50;2.90;;;;;;;1.09;100.00;100350.19;5038332;28;20490;-69
2023/12/01 09:21:05;;;;;;;9.05;3.00;;;;;;;1.18;100.00;100369.91;5052039;28;20091;-68
2023/12/01 09:23:32;;;;;;;9.00;2.85;;;;;;;1.20;100.00;100366.44;5047449;28;20053;-69
2023/12/01 09:25:59;;;;;;;7.70;3.50;;;;;;;1.14;100.00;100372.50;5065596;28;20048;-68
2023/12/01 09:28:25;;;;;;;8.65;3.30;;;;;;;1.06;100.00;100375.97;5047822;28;20060;-69
2023/12/01 09:30:52;;;;;;;12.07;4.10;;;;;;;0.98;100.00;100376.00;5047559;28;20045;-69
2023/12/01 09:33:19;;;;;;;14.13;5.75;;;;;;;0.91;100.00;100382.91;5047025;28;20498;-69
2023/12/01 09:35:45;;;;;;;10.10;4.32;;;;;;;0.98;100.00;100377.75;5047417;28;20184;-69
2023/12/01 09:38:24;;;;;;;10.60;5.00;;;;;;;0.99;100.00;100367.41;5040423;28;20129;-68
2023/12/01 09:40:51;;;;;;;8.48;3.25;;;;;;;0.69;100.00;100366.66;5049529;28;20475;-68
2023/12/01 09:43:19;;;;;;;8.68;4.32;;;;;;;0.66;100.00;100383.84;5047357;28;20108;-69
2023/12/01 09:45:46;;;;;;;8.23;3.45;;;;;;;0.69;100.00;100379.56;5049778;28;20055;-69
2023/12/01 09:48:17;;;;;;;7.63;2.90;;;;;;;0.82;100.00;100379.50;5044847;28;20459;-69
2023/12/01 09:50:44;;;;;;;8.18;3.13;;;;;;;0.95;100.00;100376.00;5058920;28;20053;-68
2023/12/01 09:53:11;;;;;;;7.72;3.13;;;;;;;1.08;100.00;100369.06;5035051;28;20441;-69
2023/12/01 09:55:38;;;;;;;12.00;3.85;;;;;;;1.12;100.00;100378.53;5052553;28;20128;-69
2023/12/01 09:58:04;;;;;;;7.55;3.45;;;;;;;1.08;100.00;100366.50;5045083;28;20467;-69
2023/12/01 10:00:31;;;;;;;6.45;2.47;;;;;;;1.28;100.00;100371.56;5044013;28;20049;-69
2023/12/01 10:02:58;;;;;;;6.72;2.72;;;;;;;1.42;100.00;100374.09;5040452;28;20045;-69
2023/12/01 10:05:25;;;;;;;7.13;2.30;;;;;;;1.54;100.00;100375.72;5036330;28;20479;-69
2023/12/01 10:07:52;;;;;;;6.13;2.10;;;;;;;1.61;100.00;100375.69;5044267;28;20183;-70
2023/12/01 10:10:23;;;;;;;5.05;1.80;;;;;;;1.79;100.00;100376.41;5032657;28;20048;-69
2023/12/01 10:13:04;;;;;;;6.97;2.00;;;;;;;1.90;100.00;100385.78;5041320;28;20574;-69
2023/12/01 10:15:33;;;;;;;4.18;1.88;;;;;;;2.02;100.00;100376.22;5045795;28;20049;-69
2023/12/01 10:18:16;;;;;;;3.60;1.60;;;;;;;2.05;100.00;100371.03;5055368;28;20465;-69
2023/12/01 10:21:02;;;;;;;5.53;1.58;;;;;;;2.14;100.00;100377.84;5042206;28;20052;-69
2023/12/01 10:23:32;;;;;;;4.80;1.93;;;;;;;2.27;100.00;100382.06;5041380;28;20045;-70
2023/12/01 10:26:03;;;;;;;3.95;1.85;;;;;;;2.30;100.00;100389.75;5040394;28;20580;-69
2023/12/01 10:28:39;;;;;;;3.92;1.63;;;;;;;2.34;100.00;100391.47;5047590;28;20064;-69
2023/12/01 10:31:07;;;;;;;4.68;2.00;;;;;;;2.44;100.00;100385.34;5046601;28;20049;-70
2023/12/01 10:33:35;;;;;;;4.72;1.90;;;;;;;2.55;100.00;100381.75;5034555;28;20223;-69
2023/12/01 10:36:03;;;;;;;4.88;1.73;;;;;;;2.70;100.00;100381.59;5047159;28;20475;-69
2023/12/01 10:38:33;;;;;;;3.85;1.80;;;;;;;2.74;100.00;100379.84;5044998;28;20048;-68
2023/12/01 10:41:01;;;;;;;4.30;1.67;;;;;;;2.74;100.00;100383.28;5055160;28;20060;-69
2023/12/01 10:43:27;;;;;;;3.45;1.55;;;;;;;2.93;100.00;100378.75;5043248;28;20053;-69
2023/12/01 10:46:05;;;;;;;4.72;1.70;;;;;;;3.08;100.00;100377.72;5054430;28;20060;-70
2023/12/01 10:48:34;;;;;;;4.18;1.58;;;;;;;3.18;100.00;100370.69;5045607;28;20548;-70
2023/12/01 10:51:05;;;;;;;4.70;1.70;;;;;;;3.17;100.00;100379.31;5043285;28;20276;-70
2023/12/01 10:53:34;;;;;;;3.75;1.48;;;;;;;3.13;100.00;100380.25;5038453;28;20049;-70
2023/12/01 10:56:04;;;;;;;5.05;1.83;;;;;;;3.12;100.00;100379.41;5050404;28;20056;-70
2023/12/01 10:58:36;;;;;;;3.72;1.67;;;;;;;3.01;100.00;100361.44;5042610;28;20163;-70
2023/12/01 11:01:03;;;;;;;4.53;1.88;;;;;;;3.15;100.00;100374.19;5038024;28;20047;-70
2023/12/01 11:03:31;;;;;;;4.18;1.83;;;;;;;3.16;100.00;100375.88;5041979;28;20077;-70
2023/12/01 11:06:05;;;;;;;4.47;1.92;;;;;;;3.29;100.00;100373.97;5042927;28;20128;-70
2023/12/01 11:08:57;;;;;;;6.78;2.60;;;;;;;3.25;100.00;100377.50;5040509;28;20414;-70
2023/12/01 11:11:42;;;;;;;5.40;2.35;;;;;;;3.30;100.00;100380.03;5045029;28;20529;-70
2023/12/01 11:14:20;;;;;;;4.13;2.03;;;;;;;3.21;100.00;100384.44;5031070;28;20134;-70
2023/12/01 11:16:48;;;;;;;4.13;1.60;;;;;;;3.60;100.00;100377.00;5044300;28;20391;-70
2023/12/01 11:19:15;;;;;;;3.78;1.70;;;;;;;3.74;100.00;100363.00;5044929;28;20063;-70
2023/12/01 11:21:43;;;;;;;5.90;2.05;;;;;;;3.81;100.00;100369.81;5046203;28;20410;-70
2023/12/01 11:24:32;;;;;;;5.07;1.80;;;;;;;3.88;100.00;100375.72;5046144;28;20136;-70
2023/12/01 11:27:07;;;;;;;5.05;1.70;;;;;;;3.91;100.00;100376.56;5046329;28;20045;-70
2023/12/01 11:29:36;;;;;;;3.20;1.65;;;;;;;3.85;100.00;100373.19;5042525;28;20098;-70
2023/12/01 11:32:03;;;;;;;5.07;1.80;;;;;;;3.75;100.00;100377.66;5043726;28;20118;-70